Olivia Sylvie — FMIF — position and weather

sailwx.info

Track history (hours):
 
Tides and Currents Weather Stations Pressure Air Temp Water Temp Dewpoint Dewpoint Depression Visibility Wind Speed Wind Dir Waves Ship Positions

Olivia Sylvie

Last reported at 2014-Oct-02 14:33 UTC. Time now 2014-Oct-02 16:33 UTC.
Position N 43°24' E 004°60'.

Length 23 m.

Type: Fishing. MMSI: 228236800.

Date/timePositionNaut miles runAvg speedWind from/ knotsBaromVisibWave heightAir tempDewpointWater temp
2014-Oct-02 14:33N 43°24' E 004°60'0 0.0
2014-Oct-02 13:33N 43°24' E 004°60'7 7.3
2014-Oct-02 12:33N 43°17' E 004°58'3 3.2
2014-Oct-02 11:33N 43°14' E 004°56'3 0.8
2014-Oct-02 07:18N 43°12' E 004°60'3 4.1
2014-Oct-02 06:27N 43°12' E 004°55'4 4.1
2014-Oct-02 05:31N 43°12' E 004°50'3 2.9
2014-Oct-02 04:33N 43°15' E 004°50'4 4.1
2014-Oct-02 03:33N 43°17' E 004°55'6 6.3
2014-Oct-02 02:33N 43°23' E 004°58'2 0.2
2014-Oct-01 16:12N 43°24' E 004°60'0 0.0
2014-Oct-01 15:33N 43°24' E 004°60'0 0.0
2014-Oct-01 14:33N 43°24' E 004°60'1 1.4
2014-Oct-01 13:33N 43°23' E 004°59'4 3.7
2014-Oct-01 12:33N 43°19' E 004°60'3 3.1
2014-Oct-01 11:33N 43°16' E 005°00'4 4.1
2014-Oct-01 10:33N 43°15' E 004°55'3 3.5
2014-Oct-01 09:33N 43°12' E 004°58'5 1.6
2014-Oct-01 06:33N 43°10' E 005°03'4 4.2
2014-Oct-01 05:30N 43°10' E 004°57'3 3.6
2014-Oct-01 04:33N 43°13' E 004°55'4 4.1
2014-Oct-01 03:33N 43°17' E 004°55'8 7.8
2014-Oct-01 02:34N 43°24' E 004°59'0 0.0
2014-Sep-30 14:33N 43°24' E 004°60'0 0.0
2014-Sep-30 13:33N 43°24' E 004°60'2 2.1
2014-Sep-30 12:33N 43°22' E 004°58'4 3.9
2014-Sep-30 11:33N 43°18' E 004°58'4 4.1
2014-Sep-30 10:33N 43°17' E 004°52'4 3.9
2014-Sep-30 09:33N 43°17' E 004°47'2 2.3
2014-Sep-30 08:32N 43°18' E 004°44'4 4.0
2014-Sep-30 07:33N 43°18' E 004°49'4 3.9
2014-Sep-30 06:33N 43°19' E 004°55'6 0.2
2014-Sep-29 04:33N 43°24' E 004°60'0 0.0
2014-Sep-29 03:34N 43°24' E 004°60'4 4.4
2014-Sep-29 02:34N 43°21' E 004°56'4 4.4
2014-Sep-29 01:33N 43°24' E 004°60'0 0.0
2014-Sep-27 09:33N 43°24' E 004°60'0 0.0
2014-Sep-27 08:33N 43°24' E 004°60'0 0.0
2014-Sep-26 12:33N 43°24' E 004°60'0 0.0
2014-Sep-26 11:33N 43°24' E 004°60'0 0.0
2014-Sep-26 10:33N 43°24' E 004°60'0 0.5
2014-Sep-26 09:33N 43°24' E 004°59'7 6.7
2014-Sep-26 08:33N 43°17' E 004°57'3 2.9
2014-Sep-26 07:33N 43°15' E 004°55'2 0.5
2014-Sep-26 03:32N 43°16' E 004°53'5 4.9
2014-Sep-26 02:33N 43°20' E 004°57'5 0.4
2014-Sep-25 15:12N 43°24' E 004°60'0 0.0
2014-Sep-25 14:33N 43°24' E 004°60'0 0.0
2014-Sep-25 13:34N 43°24' E 004°60'1 0.6
2014-Sep-25 12:33N 43°24' E 004°59'5 5.0
2014-Sep-25 11:34N 43°20' E 004°55'4 4.0
2014-Sep-25 10:33N 43°18' E 004°50'1 0.5
2014-Sep-25 08:33N 43°18' E 004°51'3 3.3
2014-Sep-25 07:33N 43°20' E 004°56'3 3.3
2014-Sep-25 06:33N 43°18' E 004°51'1 0.2
2014-Sep-25 03:32N 43°18' E 004°51'5 4.7
2014-Sep-25 02:33N 43°20' E 004°56'5 0.1
2014-Sep-23 15:31N 43°24' E 004°60'0 0.0
2014-Sep-23 14:34N 43°24' E 004°60'1 0.7
2014-Sep-23 13:34N 43°24' E 004°59'7 6.8
2014-Sep-23 12:33N 43°18' E 005°03'3 3.1
2014-Sep-23 11:33N 43°18' E 004°59'4 3.7
2014-Sep-23 10:34N 43°17' E 004°55'4 3.9
2014-Sep-23 09:33N 43°16' E 004°50'2 2.3
2014-Sep-23 08:34N 43°18' E 004°49'4 3.8
2014-Sep-23 07:33N 43°19' E 004°54'3 2.8
2014-Sep-23 06:33N 43°18' E 004°51'4 4.1
2014-Sep-23 05:33N 43°17' E 004°45'1 1.2
2014-Sep-23 04:34N 43°17' E 004°44'4 4.2
2014-Sep-23 03:33N 43°18' E 004°49'4 3.9
2014-Sep-23 02:34N 43°19' E 004°55'6 6.2
2014-Sep-23 01:34N 43°24' E 004°60'0 0.0
2014-Sep-22 15:33N 43°24' E 004°60'0 0.0
2014-Sep-22 14:34N 43°24' E 004°60'  
Track history (hours):
 
Tides and Currents Weather Stations Pressure Air Temp Water Temp Dewpoint Dewpoint Depression Visibility Wind Speed Wind Dir Waves Ship Positions

Olivia Sylvie

Last reported at 2014-Oct-02 14:33 UTC. Time now 2014-Oct-02 16:33 UTC.
Position N 43°24' E 004°60'.

Length 23 m.

Type: Fishing. MMSI: 228236800.

Date/timePositionNaut miles runAvg speedWind from/ knotsBaromVisibWave heightAir tempDewpointWater temp
2014-Oct-02 14:33N 43°24' E 004°60'0 0.0
2014-Oct-02 13:33N 43°24' E 004°60'7 7.3
2014-Oct-02 12:33N 43°17' E 004°58'3 3.2
2014-Oct-02 11:33N 43°14' E 004°56'3 0.8
2014-Oct-02 07:18N 43°12' E 004°60'3 4.1
2014-Oct-02 06:27N 43°12' E 004°55'4 4.1
2014-Oct-02 05:31N 43°12' E 004°50'3 2.9
2014-Oct-02 04:33N 43°15' E 004°50'4 4.1
2014-Oct-02 03:33N 43°17' E 004°55'6 6.3
2014-Oct-02 02:33N 43°23' E 004°58'2 0.2
2014-Oct-01 16:12N 43°24' E 004°60'0 0.0
2014-Oct-01 15:33N 43°24' E 004°60'0 0.0
2014-Oct-01 14:33N 43°24' E 004°60'1 1.4
2014-Oct-01 13:33N 43°23' E 004°59'4 3.7
2014-Oct-01 12:33N 43°19' E 004°60'3 3.1
2014-Oct-01 11:33N 43°16' E 005°00'4 4.1
2014-Oct-01 10:33N 43°15' E 004°55'3 3.5
2014-Oct-01 09:33N 43°12' E 004°58'5 1.6
2014-Oct-01 06:33N 43°10' E 005°03'4 4.2
2014-Oct-01 05:30N 43°10' E 004°57'3 3.6
2014-Oct-01 04:33N 43°13' E 004°55'4 4.1
2014-Oct-01 03:33N 43°17' E 004°55'8 7.8
2014-Oct-01 02:34N 43°24' E 004°59'0 0.0
2014-Sep-30 14:33N 43°24' E 004°60'0 0.0
2014-Sep-30 13:33N 43°24' E 004°60'2 2.1
2014-Sep-30 12:33N 43°22' E 004°58'4 3.9
2014-Sep-30 11:33N 43°18' E 004°58'4 4.1
2014-Sep-30 10:33N 43°17' E 004°52'4 3.9
2014-Sep-30 09:33N 43°17' E 004°47'2 2.3
2014-Sep-30 08:32N 43°18' E 004°44'4 4.0
2014-Sep-30 07:33N 43°18' E 004°49'4 3.9
2014-Sep-30 06:33N 43°19' E 004°55'6 0.2
2014-Sep-29 04:33N 43°24' E 004°60'0 0.0
2014-Sep-29 03:34N 43°24' E 004°60'4 4.4
2014-Sep-29 02:34N 43°21' E 004°56'4 4.4
2014-Sep-29 01:33N 43°24' E 004°60'0 0.0
2014-Sep-27 09:33N 43°24' E 004°60'0 0.0
2014-Sep-27 08:33N 43°24' E 004°60'0 0.0
2014-Sep-26 12:33N 43°24' E 004°60'0 0.0
2014-Sep-26 11:33N 43°24' E 004°60'0 0.0
2014-Sep-26 10:33N 43°24' E 004°60'0 0.5
2014-Sep-26 09:33N 43°24' E 004°59'7 6.7
2014-Sep-26 08:33N 43°17' E 004°57'3 2.9
2014-Sep-26 07:33N 43°15' E 004°55'2 0.5
2014-Sep-26 03:32N 43°16' E 004°53'5 4.9
2014-Sep-26 02:33N 43°20' E 004°57'5 0.4
2014-Sep-25 15:12N 43°24' E 004°60'0 0.0
2014-Sep-25 14:33N 43°24' E 004°60'0 0.0
2014-Sep-25 13:34N 43°24' E 004°60'1 0.6
2014-Sep-25 12:33N 43°24' E 004°59'5 5.0
2014-Sep-25 11:34N 43°20' E 004°55'4 4.0
2014-Sep-25 10:33N 43°18' E 004°50'1 0.5
2014-Sep-25 08:33N 43°18' E 004°51'3 3.3
2014-Sep-25 07:33N 43°20' E 004°56'3 3.3
2014-Sep-25 06:33N 43°18' E 004°51'1 0.2
2014-Sep-25 03:32N 43°18' E 004°51'5 4.7
2014-Sep-25 02:33N 43°20' E 004°56'5 0.1
2014-Sep-23 15:31N 43°24' E 004°60'0 0.0
2014-Sep-23 14:34N 43°24' E 004°60'1 0.7
2014-Sep-23 13:34N 43°24' E 004°59'7 6.8
2014-Sep-23 12:33N 43°18' E 005°03'3 3.1
2014-Sep-23 11:33N 43°18' E 004°59'4 3.7
2014-Sep-23 10:34N 43°17' E 004°55'4 3.9
2014-Sep-23 09:33N 43°16' E 004°50'2 2.3
2014-Sep-23 08:34N 43°18' E 004°49'4 3.8
2014-Sep-23 07:33N 43°19' E 004°54'3 2.8
2014-Sep-23 06:33N 43°18' E 004°51'4 4.1
2014-Sep-23 05:33N 43°17' E 004°45'1 1.2
2014-Sep-23 04:34N 43°17' E 004°44'4 4.2
2014-Sep-23 03:33N 43°18' E 004°49'4 3.9
2014-Sep-23 02:34N 43°19' E 004°55'6 6.2
2014-Sep-23 01:34N 43°24' E 004°60'0 0.0
2014-Sep-22 15:33N 43°24' E 004°60'0 0.0
2014-Sep-22 14:34N 43°24' E 004°60'  

Dump ship's entire track history